Time;durP1;ratioP1;P1;durP2;ratioP2;P2;SDS_P1;SDS_P2;PMS_P1;PMS_P2;Temp;Humidity;BMP_temperature;BMP_pressure;BME280_temperature;BME280_humidity;BME280_pressure;Samples;Min_cycle;Max_cycle;Signal;HPM_P1;HPM_P2
2022/05/01 00:02:06;;;;;;;4.35;3.95;;;;;;;;;;4973118;28;20300;-81
2022/05/01 00:04:34;;;;;;;3.53;3.22;;;;;;;;;;4973421;28;20202;-81
2022/05/01 00:07:02;;;;;;;3.97;3.25;;;;;;;;;;4990170;28;20201;-83
2022/05/01 00:09:29;;;;;;;3.15;2.95;;;;;;;;;;4978235;28;20208;-81
2022/05/01 00:11:56;;;;;;;3.28;2.97;;;;;;;;;;4972874;28;20206;-81
2022/05/01 00:14:23;;;;;;;3.72;3.10;;;;;;;;;;4967190;28;20245;-80
2022/05/01 00:16:50;;;;;;;5.53;3.03;;;;;;;;;;4973553;28;20209;-81
2022/05/01 00:19:17;;;;;;;3.30;2.40;;;;;;;;;;4989493;28;20197;-81
2022/05/01 00:21:46;;;;;;;3.75;3.28;;;;;;;;;;4973686;28;20219;-81
2022/05/01 00:24:13;;;;;;;3.42;3.13;;;;;;;;;;4972272;28;20748;-82
2022/05/01 00:26:40;;;;;;;5.20;3.55;;;;;;;;;;4969645;28;20197;-80
2022/05/01 00:29:07;;;;;;;4.53;3.38;;;;;;;;;;4977167;28;20580;-81
2022/05/01 00:31:34;;;;;;;3.17;2.88;;;;;;;;;;4971788;28;20202;-81
2022/05/01 00:36:47;;;;;;;3.10;2.85;;;;;;;;;;4983578;28;20199;-82
2022/05/01 00:39:14;;;;;;;3.90;3.60;;;;;;;;;;4973011;28;20204;-81
2022/05/01 00:41:43;;;;;;;4.32;3.00;;;;;;;;;;4985653;28;20252;-82
2022/05/01 00:44:10;;;;;;;3.38;2.95;;;;;;;;;;4980433;28;20210;-82
2022/05/01 00:46:38;;;;;;;4.82;4.22;;;;;;;;;;4977432;28;20549;-82
2022/05/01 00:49:08;;;;;;;3.95;3.25;;;;;;;;;;4977460;28;20291;-82
2022/05/01 00:51:35;;;;;;;4.80;3.30;;;;;;;;;;4979786;28;20661;-84
2022/05/01 00:54:07;;;;;;;3.28;2.72;;;;;;;;;;4979981;28;20221;-83
2022/05/01 00:56:34;;;;;;;3.78;3.30;;;;;;;;;;4990606;28;20551;-82
2022/05/01 00:59:01;;;;;;;4.88;3.30;;;;;;;;;;4973811;28;20679;-82
2022/05/01 01:01:28;;;;;;;3.90;3.50;;;;;;;;;;4978596;28;20208;-81
2022/05/01 01:03:55;;;;;;;3.67;3.33;;;;;;;;;;4973712;28;20196;-82
2022/05/01 01:06:24;;;;;;;3.67;3.38;;;;;;;;;;4984967;28;20205;-83
2022/05/01 01:08:51;;;;;;;3.50;3.17;;;;;;;;;;4971007;28;20213;-83
2022/05/01 01:11:20;;;;;;;3.67;3.38;;;;;;;;;;4981995;28;20193;-84
2022/05/01 01:13:48;;;;;;;3.58;3.08;;;;;;;;;;4969709;28;20194;-83
2022/05/01 01:16:15;;;;;;;4.40;3.20;;;;;;;;;;4972068;28;20200;-83
2022/05/01 01:18:42;;;;;;;3.60;3.30;;;;;;;;;;4976729;28;20664;-84
2022/05/01 01:21:11;;;;;;;3.65;3.35;;;;;;;;;;4989267;28;20212;-83
2022/05/01 01:23:38;;;;;;;3.40;2.95;;;;;;;;;;4972477;28;20222;-83
2022/05/01 01:26:05;;;;;;;3.97;3.67;;;;;;;;;;4971544;28;20212;-84
2022/05/01 01:28:34;;;;;;;3.80;3.35;;;;;;;;;;4981579;28;20201;-84
2022/05/01 01:33:48;;;;;;;3.63;3.08;;;;;;;;;;4982813;28;20196;-84
2022/05/01 01:36:17;;;;;;;3.67;2.88;;;;;;;;;;4985433;28;20209;-82
2022/05/01 01:38:44;;;;;;;3.42;3.13;;;;;;;;;;4976755;28;20205;-82
2022/05/01 01:41:13;;;;;;;3.88;2.90;;;;;;;;;;4976402;28;21925;-82
2022/05/01 01:43:43;;;;;;;3.72;3.40;;;;;;;;;;4974358;28;20713;-82
2022/05/01 01:46:10;;;;;;;3.97;3.58;;;;;;;;;;4973137;28;20210;-82
2022/05/01 01:48:37;;;;;;;4.32;3.90;;;;;;;;;;4981956;28;20205;-81
2022/05/01 01:51:06;;;;;;;3.92;3.58;;;;;;;;;;4990223;28;20224;-82
2022/05/01 01:53:35;;;;;;;3.35;3.05;;;;;;;;;;4979587;28;20202;-82
2022/05/01 01:56:03;;;;;;;3.90;3.50;;;;;;;;;;4987754;28;20894;-83
2022/05/01 01:58:31;;;;;;;3.97;3.13;;;;;;;;;;4977846;28;20666;-78
2022/05/01 02:00:59;;;;;;;3.70;3.40;;;;;;;;;;4967722;28;20648;-81
2022/05/01 02:03:27;;;;;;;4.10;3.65;;;;;;;;;;4967601;28;20246;-78
2022/05/01 02:05:54;;;;;;;3.08;2.78;;;;;;;;;;4983083;28;20198;-80
2022/05/01 02:08:21;;;;;;;5.35;4.90;;;;;;;;;;4984801;28;20205;-80
2022/05/01 02:10:49;;;;;;;5.35;3.10;;;;;;;;;;4983579;28;20208;-80
2022/05/01 02:13:17;;;;;;;3.55;3.25;;;;;;;;;;4986311;28;20200;-78
2022/05/01 02:15:46;;;;;;;3.30;3.10;;;;;;;;;;4974885;28;20207;-80
2022/05/01 02:18:14;;;;;;;4.28;3.88;;;;;;;;;;4985663;28;20297;-79
2022/05/01 02:23:26;;;;;;;3.35;3.05;;;;;;;;;;4980904;28;20307;-78
2022/05/01 02:25:55;;;;;;;4.38;3.00;;;;;;;;;;4992454;28;20200;-78
2022/05/01 02:28:22;;;;;;;5.63;3.00;;;;;;;;;;4979307;28;20198;-79
2022/05/01 02:30:51;;;;;;;3.67;3.38;;;;;;;;;;4975495;28;20200;-79
2022/05/01 02:33:20;;;;;;;5.20;3.15;;;;;;;;;;4974240;28;20247;-79
2022/05/01 02:35:48;;;;;;;3.78;3.05;;;;;;;;;;4975273;28;20206;-79
2022/05/01 02:38:15;;;;;;;3.58;2.90;;;;;;;;;;4974449;28;20205;-80
2022/05/01 02:40:42;;;;;;;4.22;3.30;;;;;;;;;;4957636;28;20206;-79
2022/05/01 02:43:11;;;;;;;3.50;3.15;;;;;;;;;;4966340;28;20227;-82
2022/05/01 02:45:38;;;;;;;4.05;3.65;;;;;;;;;;4979130;28;20205;-82
2022/05/01 02:48:06;;;;;;;3.58;3.15;;;;;;;;;;4991149;28;20201;-82
2022/05/01 02:50:33;;;;;;;5.45;4.18;;;;;;;;;;4987647;28;20201;-81
2022/05/01 02:53:04;;;;;;;3.45;2.90;;;;;;;;;;4987487;28;20196;-81
2022/05/01 02:55:31;;;;;;;3.28;3.08;;;;;;;;;;4973907;28;20205;-81
2022/05/01 02:57:58;;;;;;;3.20;2.90;;;;;;;;;;4982008;28;20208;-81
2022/05/01 03:00:26;;;;;;;4.03;3.00;;;;;;;;;;4959362;28;20232;-81
2022/05/01 03:02:56;;;;;;;3.70;3.33;;;;;;;;;;4975843;28;20224;-81
2022/05/01 03:05:25;;;;;;;3.28;2.97;;;;;;;;;;4979962;28;20243;-81
2022/05/01 03:07:55;;;;;;;3.53;3.15;;;;;;;;;;4991678;28;20228;-81
2022/05/01 03:10:22;;;;;;;3.90;3.47;;;;;;;;;;4966929;28;20708;-81
2022/05/01 03:12:49;;;;;;;3.10;2.90;;;;;;;;;;4985515;28;20193;-81
2022/05/01 03:15:16;;;;;;;3.80;3.50;;;;;;;;;;4971542;28;20256;-81
2022/05/01 03:23:14;;;;;;;3.40;3.10;;;;;;;;;;4979099;28;20251;-82
2022/05/01 03:25:41;;;;;;;3.40;3.10;;;;;;;;;;4983224;28;20228;-82
2022/05/01 03:28:08;;;;;;;3.70;3.40;;;;;;;;;;4978520;28;20217;-80
2022/05/01 03:30:36;;;;;;;2.55;2.35;;;;;;;;;;4970432;28;20194;-81
2022/05/01 03:33:07;;;;;;;3.08;2.88;;;;;;;;;;4974690;28;20645;-81
2022/05/01 03:35:35;;;;;;;3.15;2.72;;;;;;;;;;4988648;28;20202;-80
2022/05/01 03:38:02;;;;;;;2.75;2.55;;;;;;;;;;4969964;28;20656;-80
2022/05/01 03:40:29;;;;;;;4.90;3.50;;;;;;;;;;4970806;28;20209;-80
2022/05/01 03:42:56;;;;;;;3.30;2.97;;;;;;;;;;4983208;28;20668;-80
2022/05/01 03:45:23;;;;;;;3.70;2.97;;;;;;;;;;4979332;28;20208;-82
2022/05/01 03:47:50;;;;;;;3.15;2.50;;;;;;;;;;4983992;28;20220;-82
2022/05/01 03:50:19;;;;;;;3.72;3.00;;;;;;;;;;4986190;28;20288;-82
2022/05/01 03:52:46;;;;;;;2.90;2.70;;;;;;;;;;4965087;28;20560;-82
2022/05/01 03:55:14;;;;;;;4.07;2.88;;;;;;;;;;4974380;28;20279;-81
2022/05/01 03:57:41;;;;;;;3.25;2.95;;;;;;;;;;4990412;28;20193;-81
2022/05/01 04:00:10;;;;;;;4.90;2.38;;;;;;;;;;4972933;28;20208;-83
2022/05/01 04:02:42;;;;;;;3.40;3.13;;;;;;;;;;4974585;28;20227;-81
2022/05/01 04:05:09;;;;;;;3.25;2.72;;;;;;;;;;4986378;28;20225;-82
2022/05/01 04:07:38;;;;;;;3.05;2.75;;;;;;;;;;4989427;28;20208;-82
2022/05/01 04:10:05;;;;;;;3.10;2.83;;;;;;;;;;4966622;28;20204;-83
2022/05/01 04:12:36;;;;;;;3.90;2.60;;;;;;;;;;4982546;28;20224;-83
2022/05/01 04:15:07;;;;;;;2.88;2.65;;;;;;;;;;4968921;28;20205;-83
2022/05/01 04:17:34;;;;;;;3.30;2.97;;;;;;;;;;4983432;28;20209;-84
2022/05/01 04:20:02;;;;;;;3.38;3.08;;;;;;;;;;4980529;28;20197;-83
2022/05/01 04:22:29;;;;;;;3.85;3.38;;;;;;;;;;4975772;28;20216;-83
2022/05/01 04:24:58;;;;;;;3.17;2.88;;;;;;;;;;4954306;28;20194;-83
2022/05/01 04:27:25;;;;;;;3.67;3.00;;;;;;;;;;4983170;28;20193;-83
2022/05/01 04:29:52;;;;;;;3.00;2.45;;;;;;;;;;4965399;28;20212;-83
2022/05/01 04:32:21;;;;;;;2.50;2.30;;;;;;;;;;4980625;28;20208;-82
2022/05/01 04:34:48;;;;;;;3.00;2.75;;;;;;;;;;4982324;28;20691;-82
2022/05/01 04:37:15;;;;;;;2.72;2.53;;;;;;;;;;4977334;28;20235;-83
2022/05/01 04:39:42;;;;;;;3.33;3.03;;;;;;;;;;4972985;28;20296;-83
2022/05/01 04:42:11;;;;;;;4.32;4.03;;;;;;;;;;4977731;28;20526;-85
2022/05/01 04:44:38;;;;;;;3.40;2.28;;;;;;;;;;4971535;28;20716;-86
2022/05/01 04:47:05;;;;;;;3.40;3.10;;;;;;;;;;4977007;28;20201;-85
2022/05/01 04:49:32;;;;;;;2.60;2.40;;;;;;;;;;4971271;28;20592;-85
2022/05/01 04:52:00;;;;;;;3.28;2.47;;;;;;;;;;4985890;28;20683;-84
2022/05/01 04:54:28;;;;;;;3.65;3.30;;;;;;;;;;4972292;28;20711;-83
2022/05/01 04:57:08;;;;;;;3.08;2.78;;;;;;;;;;4986463;28;20200;-82
2022/05/01 04:59:37;;;;;;;3.20;2.60;;;;;;;;;;4957578;28;20221;-83
2022/05/01 05:02:04;;;;;;;3.10;2.70;;;;;;;;;;4971390;28;20239;-82
2022/05/01 05:04:31;;;;;;;2.50;2.30;;;;;;;;;;4979857;28;20221;-82
2022/05/01 05:06:58;;;;;;;4.80;2.20;;;;;;;;;;4977112;28;20814;-83
2022/05/01 05:12:10;;;;;;;3.00;2.53;;;;;;;;;;4985629;28;20196;-83
2022/05/01 05:14:39;;;;;;;2.85;2.55;;;;;;;;;;4953173;28;20204;-82
2022/05/01 05:17:09;;;;;;;3.00;2.58;;;;;;;;;;4975765;28;20675;-81
2022/05/01 05:19:36;;;;;;;2.67;2.47;;;;;;;;;;4984930;28;20209;-83
2022/05/01 05:22:03;;;;;;;2.95;2.75;;;;;;;;;;4980428;28;20587;-84
2022/05/01 05:24:30;;;;;;;4.88;4.00;;;;;;;;;;4962578;28;20228;-82
2022/05/01 05:26:58;;;;;;;2.83;2.63;;;;;;;;;;4982654;28;20204;-85
2022/05/01 05:29:25;;;;;;;4.18;2.65;;;;;;;;;;4974058;28;20649;-84
2022/05/01 05:31:53;;;;;;;2.80;2.60;;;;;;;;;;4984425;28;20346;-84
2022/05/01 05:34:20;;;;;;;2.95;2.50;;;;;;;;;;4967894;28;20202;-85
2022/05/01 05:36:48;;;;;;;3.55;2.70;;;;;;;;;;4979421;28;20208;-85
2022/05/01 05:39:15;;;;;;;3.20;2.90;;;;;;;;;;4977888;28;20557;-85
2022/05/01 05:41:42;;;;;;;2.45;2.25;;;;;;;;;;4985522;28;20593;-83
2022/05/01 05:44:09;;;;;;;3.75;3.17;;;;;;;;;;4982864;28;20549;-83
2022/05/01 05:46:36;;;;;;;3.45;2.67;;;;;;;;;;4977305;28;20208;-83
2022/05/01 05:49:05;;;;;;;3.83;2.78;;;;;;;;;;4972108;28;20564;-84
2022/05/01 05:51:32;;;;;;;2.95;2.65;;;;;;;;;;4976078;28;20201;-85
2022/05/01 05:53:59;;;;;;;6.90;3.03;;;;;;;;;;4981690;28;20207;-84
2022/05/01 05:56:26;;;;;;;2.75;2.55;;;;;;;;;;4982513;28;20549;-84
2022/05/01 05:58:53;;;;;;;3.70;2.90;;;;;;;;;;4981145;28;20193;-84
2022/05/01 06:01:20;;;;;;;3.58;3.10;;;;;;;;;;4973164;28;20233;-88
2022/05/01 06:03:49;;;;;;;4.60;3.63;;;;;;;;;;4980862;28;20225;-86
2022/05/01 06:06:18;;;;;;;3.22;2.92;;;;;;;;;;4989868;28;20644;-84
2022/05/01 06:08:46;;;;;;;3.72;3.38;;;;;;;;;;4986766;28;20200;-84
2022/05/01 06:11:13;;;;;;;3.13;2.83;;;;;;;;;;4992376;28;20229;-85
2022/05/01 06:13:40;;;;;;;3.13;2.75;;;;;;;;;;4994676;28;20196;-85
2022/05/01 06:16:07;;;;;;;3.83;3.47;;;;;;;;;;4982528;28;20209;-84
2022/05/01 06:18:34;;;;;;;3.72;2.80;;;;;;;;;;4986355;28;20201;-82
2022/05/01 06:21:01;;;;;;;3.42;3.22;;;;;;;;;;4983278;28;20809;-85
2022/05/01 06:23:30;;;;;;;3.25;2.65;;;;;;;;;;4977842;28;20704;-85
2022/05/01 06:25:57;;;;;;;3.10;2.80;;;;;;;;;;4985584;28;20213;-85
2022/05/01 06:28:24;;;;;;;3.05;2.78;;;;;;;;;;4975014;28;20201;-85
2022/05/01 06:30:52;;;;;;;3.05;2.75;;;;;;;;;;4975308;28;20205;-83
2022/05/01 06:33:20;;;;;;;3.97;3.17;;;;;;;;;;4978212;28;20200;-83
2022/05/01 06:35:49;;;;;;;2.35;2.15;;;;;;;;;;4982107;28;20197;-83
2022/05/01 06:38:17;;;;;;;2.70;2.50;;;;;;;;;;4963074;28;20225;-84
2022/05/01 06:40:45;;;;;;;3.75;2.85;;;;;;;;;;4979854;28;20194;-83
2022/05/01 06:43:14;;;;;;;2.97;2.67;;;;;;;;;;4985854;28;20397;-84
2022/05/01 06:45:42;;;;;;;2.42;2.20;;;;;;;;;;4955308;28;20206;-82
2022/05/01 06:48:10;;;;;;;2.38;2.17;;;;;;;;;;4978080;28;20213;-82
2022/05/01 06:50:37;;;;;;;3.28;2.70;;;;;;;;;;4982267;28;20279;-85
2022/05/01 06:53:04;;;;;;;2.58;2.38;;;;;;;;;;4975093;28;20190;-88
2022/05/01 06:55:31;;;;;;;2.55;2.35;;;;;;;;;;4980752;28;20208;-92
2022/05/01 06:57:58;;;;;;;3.50;2.38;;;;;;;;;;4993706;28;20197;-92
2022/05/01 07:00:27;;;;;;;3.15;2.53;;;;;;;;;;4978663;28;20201;-91
2022/05/01 07:02:55;;;;;;;4.88;2.60;;;;;;;;;;4990510;28;20204;-95
2022/05/01 07:05:22;;;;;;;4.30;2.47;;;;;;;;;;4988553;28;20691;-88
2022/05/01 07:07:51;;;;;;;3.45;2.78;;;;;;;;;;4980624;28;20202;-87
2022/05/01 07:10:18;;;;;;;2.40;2.20;;;;;;;;;;4982177;28;20640;-87
2022/05/01 07:12:45;;;;;;;2.75;2.55;;;;;;;;;;4976522;28;20209;-87
2022/05/01 07:15:12;;;;;;;2.00;1.80;;;;;;;;;;4972396;28;20198;-86
2022/05/01 07:17:41;;;;;;;1.90;1.70;;;;;;;;;;4981854;28;20205;-88
2022/05/01 07:20:08;;;;;;;2.40;2.20;;;;;;;;;;4981831;28;20206;-87
2022/05/01 07:22:35;;;;;;;2.03;1.85;;;;;;;;;;4967943;28;20208;-87
2022/05/01 07:25:03;;;;;;;2.72;2.10;;;;;;;;;;4963127;28;20224;-88
2022/05/01 07:27:30;;;;;;;2.70;2.35;;;;;;;;;;4981920;28;20201;-89
2022/05/01 07:29:57;;;;;;;5.80;2.40;;;;;;;;;;4971100;28;20256;-83
2022/05/01 07:32:24;;;;;;;2.70;2.47;;;;;;;;;;4979440;28;20201;-87
2022/05/01 07:34:52;;;;;;;2.88;2.50;;;;;;;;;;4994506;28;20273;-87
2022/05/01 07:37:24;;;;;;;3.70;2.65;;;;;;;;;;4970993;28;20237;-85
2022/05/01 07:39:51;;;;;;;3.17;2.88;;;;;;;;;;4970516;28;20202;-87
2022/05/01 07:42:18;;;;;;;2.63;2.20;;;;;;;;;;4977879;28;20232;-87
2022/05/01 07:44:45;;;;;;;2.25;2.05;;;;;;;;;;4978134;28;20672;-86
2022/05/01 07:47:12;;;;;;;3.85;2.17;;;;;;;;;;4984926;28;20198;-88
2022/05/01 07:49:40;;;;;;;2.85;2.65;;;;;;;;;;4984049;28;20208;-86
2022/05/01 07:52:09;;;;;;;3.70;3.10;;;;;;;;;;4969094;28;20208;-87
2022/05/01 07:54:36;;;;;;;2.65;2.33;;;;;;;;;;4983213;28;20608;-87
2022/05/01 07:57:03;;;;;;;2.25;2.05;;;;;;;;;;4974966;28;20225;-88
2022/05/01 07:59:30;;;;;;;2.70;2.08;;;;;;;;;;4974388;28;20216;-89
2022/05/01 08:01:57;;;;;;;3.00;1.95;;;;;;;;;;4973085;28;20216;-86
2022/05/01 08:04:30;;;;;;;2.85;2.58;;;;;;;;;;4973011;28;20221;-87
2022/05/01 08:06:59;;;;;;;5.35;3.25;;;;;;;;;;4970534;28;20199;-87
2022/05/01 08:09:27;;;;;;;2.17;1.85;;;;;;;;;;4980069;28;20536;-91
2022/05/01 08:11:54;;;;;;;2.10;1.90;;;;;;;;;;4984302;28;20629;-88
2022/05/01 08:14:22;;;;;;;2.58;2.38;;;;;;;;;;4978674;28;20205;-89
2022/05/01 08:16:50;;;;;;;3.33;2.30;;;;;;;;;;4982447;28;20197;-82
2022/05/01 08:22:04;;;;;;;4.18;2.50;;;;;;;;;;4976373;28;20192;-84
2022/05/01 08:24:33;;;;;;;3.08;1.90;;;;;;;;;;4969010;28;20232;-83
2022/05/01 08:27:05;;;;;;;1.90;1.70;;;;;;;;;;4982931;28;20207;-84
2022/05/01 08:29:32;;;;;;;2.78;2.40;;;;;;;;;;4974765;28;20212;-84
2022/05/01 08:32:00;;;;;;;2.20;2.00;;;;;;;;;;4987068;28;20710;-84
2022/05/01 08:34:27;;;;;;;2.40;1.90;;;;;;;;;;4989826;28;20251;-83
2022/05/01 08:36:54;;;;;;;2.30;2.10;;;;;;;;;;4978149;28;20244;-84
2022/05/01 08:39:21;;;;;;;2.20;2.00;;;;;;;;;;4971093;28;20209;-83
2022/05/01 08:41:50;;;;;;;2.55;2.35;;;;;;;;;;4986709;28;20823;-81
2022/05/01 08:44:19;;;;;;;2.00;1.80;;;;;;;;;;4976022;28;20224;-83
2022/05/01 08:46:54;;;;;;;2.50;2.30;;;;;;;;;;4980898;28;20698;-83
2022/05/01 08:49:22;;;;;;;1.60;1.50;;;;;;;;;;4981987;28;20207;-82
2022/05/01 08:51:50;;;;;;;2.10;1.90;;;;;;;;;;4970844;28;20194;-82
2022/05/01 08:54:17;;;;;;;2.38;2.10;;;;;;;;;;4990230;28;20197;-81
2022/05/01 08:56:45;;;;;;;2.10;1.90;;;;;;;;;;4992860;28;20230;-83
2022/05/01 08:59:14;;;;;;;2.83;2.63;;;;;;;;;;4984480;28;20677;-83
2022/05/01 09:01:43;;;;;;;1.85;1.50;;;;;;;;;;4985760;28;20651;-83
2022/05/01 09:04:12;;;;;;;2.80;2.60;;;;;;;;;;4967654;28;20218;-83
2022/05/01 09:06:39;;;;;;;2.60;1.98;;;;;;;;;;4983034;28;20291;-83
2022/05/01 09:09:06;;;;;;;2.78;2.40;;;;;;;;;;4974139;28;20201;-83
2022/05/01 09:14:21;;;;;;;3.28;2.30;;;;;;;;;;4984748;28;20208;-82
2022/05/01 09:17:09;;;;;;;2.70;2.50;;;;;;;;;;4987980;28;20231;-81
2022/05/01 09:19:36;;;;;;;3.13;2.13;;;;;;;;;;4967751;28;20198;-81
2022/05/01 09:22:04;;;;;;;4.20;2.78;;;;;;;;;;4977128;28;20200;-83
2022/05/01 09:24:31;;;;;;;2.45;2.25;;;;;;;;;;4984369;28;20224;-84
2022/05/01 09:27:00;;;;;;;6.80;3.45;;;;;;;;;;4990159;28;20231;-83
2022/05/01 09:29:32;;;;;;;3.17;2.47;;;;;;;;;;4973891;28;20210;-82
2022/05/01 09:32:00;;;;;;;2.20;2.00;;;;;;;;;;4975587;28;20208;-82
2022/05/01 09:34:29;;;;;;;3.55;2.58;;;;;;;;;;4990653;28;20644;-83
2022/05/01 09:36:57;;;;;;;2.72;2.50;;;;;;;;;;4976662;28;20219;-81
2022/05/01 09:39:24;;;;;;;2.03;1.83;;;;;;;;;;4976239;28;20220;-83
2022/05/01 09:41:52;;;;;;;2.60;2.38;;;;;;;;;;4993556;28;20723;-83
2022/05/01 09:44:20;;;;;;;3.72;2.75;;;;;;;;;;4982677;28;20708;-83
2022/05/01 09:46:49;;;;;;;6.40;2.67;;;;;;;;;;4987147;28;20205;-79
2022/05/01 09:49:18;;;;;;;3.45;2.35;;;;;;;;;;4982863;28;20212;-81
2022/05/01 09:51:47;;;;;;;3.20;2.15;;;;;;;;;;4979257;28;20641;-81
2022/05/01 09:54:18;;;;;;;2.45;2.25;;;;;;;;;;4987195;28;20684;-84
2022/05/01 09:56:46;;;;;;;3.15;2.60;;;;;;;;;;4977869;28;20220;-84
2022/05/01 09:59:13;;;;;;;2.40;1.75;;;;;;;;;;4974268;28;20209;-85
2022/05/01 10:01:41;;;;;;;4.22;2.17;;;;;;;;;;4983659;28;20196;-87
2022/05/01 10:04:09;;;;;;;2.15;1.95;;;;;;;;;;4982743;28;20244;-81
2022/05/01 10:06:37;;;;;;;1.98;1.77;;;;;;;;;;4994467;28;20205;-86
2022/05/01 10:09:04;;;;;;;2.13;1.92;;;;;;;;;;4974726;28;20196;-86
2022/05/01 10:11:31;;;;;;;3.42;1.67;;;;;;;;;;4986287;28;20196;-84
2022/05/01 10:13:58;;;;;;;2.53;1.80;;;;;;;;;;4987059;28;20286;-85
2022/05/01 10:16:27;;;;;;;5.45;1.88;;;;;;;;;;4982262;28;20201;-85
2022/05/01 10:18:54;;;;;;;2.38;1.95;;;;;;;;;;4977046;28;20201;-83
2022/05/01 10:21:23;;;;;;;3.38;2.15;;;;;;;;;;4981820;28;20198;-82
2022/05/01 10:23:50;;;;;;;3.03;2.60;;;;;;;;;;4973417;28;20497;-84
2022/05/01 10:26:18;;;;;;;4.05;2.28;;;;;;;;;;4976268;28;20220;-84
2022/05/01 10:29:00;;;;;;;2.33;2.13;;;;;;;;;;4977939;28;20202;-84
2022/05/01 10:34:29;;;;;;;2.22;2.00;;;;;;;;;;4975252;28;20204;-83
2022/05/01 10:37:06;;;;;;;2.65;2.45;;;;;;;;;;4967360;28;20263;-81
2022/05/01 10:39:35;;;;;;;11.68;2.20;;;;;;;;;;4970529;28;20587;-83
2022/05/01 10:42:02;;;;;;;1.85;1.70;;;;;;;;;;4978422;28;20227;-82
2022/05/01 10:44:30;;;;;;;2.28;2.08;;;;;;;;;;4971359;28;20208;-83
2022/05/01 10:47:05;;;;;;;5.55;2.40;;;;;;;;;;4981143;28;20205;-83
2022/05/01 10:49:33;;;;;;;2.72;2.00;;;;;;;;;;4979662;28;20209;-83
2022/05/01 10:52:15;;;;;;;2.05;1.85;;;;;;;;;;4977060;28;20524;-83
2022/05/01 10:54:42;;;;;;;2.25;2.05;;;;;;;;;;4980450;28;20676;-81
2022/05/01 10:57:14;;;;;;;3.05;2.53;;;;;;;;;;4985527;28;20204;-80
2022/05/01 10:59:46;;;;;;;2.40;2.20;;;;;;;;;;4968553;28;20210;-83
2022/05/01 11:02:35;;;;;;;2.40;2.15;;;;;;;;;;4974839;28;20243;-83
2022/05/01 11:05:03;;;;;;;2.17;1.98;;;;;;;;;;4953795;28;20598;-81
2022/05/01 11:07:34;;;;;;;2.30;2.10;;;;;;;;;;4972444;28;20218;-80
2022/05/01 11:10:02;;;;;;;2.88;2.67;;;;;;;;;;4970124;28;20615;-83
2022/05/01 11:12:31;;;;;;;3.35;2.50;;;;;;;;;;4974991;28;20212;-80
2022/05/01 11:14:59;;;;;;;3.63;2.00;;;;;;;;;;4972542;28;20200;-82
2022/05/01 11:17:46;;;;;;;1.83;1.73;;;;;;;;;;4979361;28;20659;-83
2022/05/01 11:20:25;;;;;;;3.25;2.47;;;;;;;;;;4978070;28;20287;-83
2022/05/01 11:22:54;;;;;;;2.20;1.90;;;;;;;;;;4980957;28;20294;-81
2022/05/01 11:25:31;;;;;;;2.40;2.20;;;;;;;;;;4979929;28;20240;-82
2022/05/01 11:27:58;;;;;;;2.40;1.80;;;;;;;;;;4978888;28;20234;-83
2022/05/01 11:30:35;;;;;;;2.90;2.03;;;;;;;;;;4963024;28;20700;-81
2022/05/01 11:33:03;;;;;;;2.70;2.50;;;;;;;;;;4978269;28;20205;-81
2022/05/01 11:35:49;;;;;;;2.60;2.40;;;;;;;;;;4982179;28;20209;-80
2022/05/01 11:38:17;;;;;;;2.90;2.22;;;;;;;;;;4960064;28;20204;-84
2022/05/01 11:40:55;;;;;;;2.70;2.00;;;;;;;;;;4983984;28;20665;-83
2022/05/01 11:43:22;;;;;;;2.50;2.28;;;;;;;;;;4980602;28;20303;-83
2022/05/01 11:45:49;;;;;;;2.72;2.53;;;;;;;;;;4969011;28;20740;-83
2022/05/01 11:48:17;;;;;;;2.45;2.20;;;;;;;;;;4976853;28;20528;-83
2022/05/01 11:50:44;;;;;;;3.05;2.67;;;;;;;;;;4978670;28;20189;-82
2022/05/01 11:53:20;;;;;;;3.42;2.70;;;;;;;;;;4987497;28;20294;-82
2022/05/01 12:04:19;;;;;;;2.00;1.90;;;;;;;;;;4979261;28;20271;-84
2022/05/01 12:06:46;;;;;;;2.35;2.15;;;;;;;;;;4975550;28;20217;-84
2022/05/01 12:09:18;;;;;;;2.38;2.17;;;;;;;;;;4979283;28;20207;-86
2022/05/01 12:11:47;;;;;;;3.20;2.58;;;;;;;;;;4978546;28;20299;-81
2022/05/01 12:14:14;;;;;;;2.38;2.17;;;;;;;;;;4964030;28;20659;-82
2022/05/01 12:16:42;;;;;;;3.30;2.72;;;;;;;;;;4973711;28;20248;-82
2022/05/01 12:19:11;;;;;;;2.05;1.92;;;;;;;;;;4976064;28;20200;-84
2022/05/01 12:21:38;;;;;;;3.35;2.00;;;;;;;;;;4979858;28;20256;-84
2022/05/01 12:24:06;;;;;;;2.67;2.40;;;;;;;;;;4967060;28;20196;-84
2022/05/01 12:26:35;;;;;;;2.53;1.90;;;;;;;;;;4967729;28;20230;-83
2022/05/01 12:29:02;;;;;;;2.65;2.03;;;;;;;;;;4968906;28;20204;-83
2022/05/01 12:31:30;;;;;;;1.95;1.80;;;;;;;;;;4969448;28;20205;-81
2022/05/01 12:33:58;;;;;;;5.60;2.55;;;;;;;;;;4961971;28;20206;-84
2022/05/01 12:36:26;;;;;;;3.33;2.47;;;;;;;;;;4968427;28;20209;-83
2022/05/01 12:39:01;;;;;;;2.60;2.40;;;;;;;;;;4968394;28;20211;-83
2022/05/01 12:44:14;;;;;;;4.43;1.92;;;;;;;;;;4958089;28;20661;-83
2022/05/01 12:46:52;;;;;;;3.17;2.30;;;;;;;;;;4981711;28;20219;-84
2022/05/01 12:49:26;;;;;;;5.30;2.70;;;;;;;;;;4969496;28;20530;-84
2022/05/01 12:51:53;;;;;;;2.35;2.15;;;;;;;;;;4987926;28;20652;-84
2022/05/01 12:54:20;;;;;;;2.38;2.17;;;;;;;;;;4976185;28;20218;-82
2022/05/01 12:56:48;;;;;;;1.90;1.80;;;;;;;;;;4975735;28;20208;-86
2022/05/01 12:59:26;;;;;;;2.50;2.03;;;;;;;;;;4966929;28;20548;-85
2022/05/01 13:01:54;;;;;;;2.75;2.50;;;;;;;;;;4977835;28;20259;-83
2022/05/01 13:04:25;;;;;;;4.47;3.85;;;;;;;;;;4972294;28;20780;-84
2022/05/01 13:06:52;;;;;;;3.20;2.40;;;;;;;;;;4966939;28;20224;-84
2022/05/01 13:09:20;;;;;;;1.85;1.75;;;;;;;;;;4977425;28;20209;-84
2022/05/01 13:12:03;;;;;;;2.20;2.00;;;;;;;;;;4981754;28;20197;-85
2022/05/01 13:14:33;;;;;;;2.72;2.53;;;;;;;;;;4965420;28;20202;-83
2022/05/01 13:17:10;;;;;;;4.80;2.05;;;;;;;;;;4969522;28;20194;-84
2022/05/01 13:19:38;;;;;;;2.70;2.50;;;;;;;;;;4967220;28;20207;-86
2022/05/01 13:22:06;;;;;;;2.42;2.17;;;;;;;;;;4966510;28;20660;-85
2022/05/01 13:24:34;;;;;;;2.00;1.80;;;;;;;;;;4954468;28;20217;-85
2022/05/01 13:27:02;;;;;;;2.75;2.55;;;;;;;;;;4972595;28;20329;-85
2022/05/01 13:29:31;;;;;;;2.70;2.42;;;;;;;;;;4966013;28;20740;-84
2022/05/01 13:32:00;;;;;;;3.55;3.25;;;;;;;;;;4971091;28;20228;-85
2022/05/01 13:34:27;;;;;;;3.33;2.75;;;;;;;;;;4967166;28;20210;-82
2022/05/01 13:36:54;;;;;;;2.85;2.63;;;;;;;;;;4976862;28;20285;-84
2022/05/01 13:39:21;;;;;;;3.00;2.75;;;;;;;;;;4965088;28;20201;-85
2022/05/01 13:44:45;;;;;;;2.38;2.17;;;;;;;;;;4962899;28;20214;-85
2022/05/01 13:47:15;;;;;;;2.40;1.80;;;;;;;;;;4972068;28;20696;-85
2022/05/01 13:49:42;;;;;;;3.90;2.05;;;;;;;;;;4971449;28;20214;-85
2022/05/01 13:52:10;;;;;;;2.25;2.05;;;;;;;;;;4975835;28;20204;-85
2022/05/01 13:54:37;;;;;;;2.03;1.75;;;;;;;;;;4974837;28;20603;-85
2022/05/01 13:57:04;;;;;;;2.30;2.10;;;;;;;;;;4979470;28;20236;-85
2022/05/01 13:59:31;;;;;;;2.33;2.13;;;;;;;;;;4971020;28;20209;-84
2022/05/01 14:01:59;;;;;;;4.93;2.50;;;;;;;;;;4981730;28;20239;-80
2022/05/01 14:04:29;;;;;;;2.60;2.40;;;;;;;;;;4980763;28;20209;-86
2022/05/01 14:06:56;;;;;;;2.65;2.03;;;;;;;;;;4979020;28;20627;-84
2022/05/01 14:09:23;;;;;;;2.33;2.13;;;;;;;;;;4967580;28;20234;-85
2022/05/01 14:11:50;;;;;;;2.92;2.60;;;;;;;;;;4973034;28;20212;-85
2022/05/01 14:14:18;;;;;;;2.65;2.13;;;;;;;;;;4966356;28;20200;-86
2022/05/01 14:16:45;;;;;;;3.45;2.60;;;;;;;;;;4972957;28;20202;-82
2022/05/01 14:19:13;;;;;;;1.70;1.60;;;;;;;;;;4977537;28;20683;-85
2022/05/01 14:21:42;;;;;;;2.58;1.67;;;;;;;;;;4969785;28;20206;-80
2022/05/01 14:24:09;;;;;;;3.05;2.85;;;;;;;;;;4982808;28;20208;-82
2022/05/01 14:26:36;;;;;;;2.50;2.30;;;;;;;;;;4982942;28;20217;-82
2022/05/01 14:29:03;;;;;;;2.40;2.00;;;;;;;;;;4964912;28;20202;-83
2022/05/01 14:31:35;;;;;;;3.00;2.70;;;;;;;;;;4960621;28;20206;-83
2022/05/01 14:34:06;;;;;;;2.60;2.40;;;;;;;;;;4976476;28;20701;-83
2022/05/01 14:36:35;;;;;;;3.33;3.03;;;;;;;;;;4970073;28;20661;-83
2022/05/01 14:39:05;;;;;;;3.25;2.95;;;;;;;;;;4965212;28;20205;-83
2022/05/01 14:41:34;;;;;;;2.85;2.33;;;;;;;;;;4976821;28;20606;-84
2022/05/01 14:44:03;;;;;;;2.72;2.53;;;;;;;;;;4970636;28;20770;-83
2022/05/01 14:46:34;;;;;;;2.50;2.30;;;;;;;;;;4963992;28;20233;-83
2022/05/01 14:49:07;;;;;;;2.50;2.28;;;;;;;;;;4971917;28;20219;-84
2022/05/01 14:51:35;;;;;;;2.42;2.20;;;;;;;;;;4980773;28;20206;-84
2022/05/01 14:54:04;;;;;;;2.20;1.98;;;;;;;;;;4974565;28;20676;-83
2022/05/01 14:56:33;;;;;;;2.30;2.10;;;;;;;;;;4962665;28;20227;-84
2022/05/01 15:07:18;;;;;;;2.55;2.15;;;;;;;;;;4964923;28;20276;-84
2022/05/01 15:09:47;;;;;;;4.03;2.97;;;;;;;;;;4976807;28;20199;-84
2022/05/01 15:12:16;;;;;;;4.20;2.50;;;;;;;;;;4975301;28;20678;-84
2022/05/01 15:14:43;;;;;;;3.15;2.40;;;;;;;;;;4969421;28;20204;-84
2022/05/01 15:17:12;;;;;;;2.40;2.20;;;;;;;;;;4960259;28;20677;-83
2022/05/01 15:19:42;;;;;;;2.33;2.13;;;;;;;;;;4969736;28;20210;-84
2022/05/01 15:22:23;;;;;;;2.30;2.10;;;;;;;;;;4983266;28;20243;-86
2022/05/01 15:24:57;;;;;;;2.25;2.00;;;;;;;;;;4969728;28;20300;-85
2022/05/01 15:27:29;;;;;;;3.47;2.45;;;;;;;;;;4983375;28;20554;-85
2022/05/01 15:29:58;;;;;;;2.60;1.90;;;;;;;;;;4977643;28;21374;-85
2022/05/01 15:32:27;;;;;;;2.28;2.08;;;;;;;;;;4970513;28;20249;-85
2022/05/01 15:34:56;;;;;;;2.63;2.42;;;;;;;;;;4982208;28;20198;-86
2022/05/01 15:37:25;;;;;;;3.88;2.35;;;;;;;;;;4967123;28;20214;-85
2022/05/01 15:39:58;;;;;;;4.88;2.00;;;;;;;;;;4973971;28;20265;-86